Green Honduras — C6WH8 — position and weather

sailwx.info

Track history (hours):
 
Tides and Currents Weather Stations Pressure Air Temp Water Temp Dewpoint Dewpoint Depression Visibility Wind Speed Wind Dir Waves Ship Positions

Green Honduras

Last reported at 2018-Feb-14 00:36 UTC. Time now 2018-Feb-19 20:27 UTC.
Position S 28°44' E 032°30'.

Length 131 m; draft 6.2 m.

Type: Cargo ship. MMSI: 311289000.

Date/timePositionNaut miles runAvg speedWind from/ knotsBaromVisibWave heightAir tempDewpointWater temp
2018-Feb-14 00:36S 28°44' E 032°30'312.2
2018-Feb-14 00:23S 28°46' E 032°28'512.3
2018-Feb-14 00:00S 28°50' E 032°25'4211.7
2018-Feb-13 20:24S 29°22' E 031°54'513.8
2018-Feb-13 20:00S 29°26' E 031°50'714.7
2018-Feb-13 19:31S 29°32' E 031°45'714.3
2018-Feb-13 19:01S 29°38' E 031°41'713.2
2018-Feb-13 18:30S 29°44' E 031°38'714.2
2018-Feb-13 18:01S 29°49' E 031°32'815.1
2018-Feb-13 17:30S 29°54' E 031°25'815.6
2018-Feb-13 17:00S 30°00' E 031°20'815.1
2018-Feb-13 16:30S 30°06' E 031°14'815.3
2018-Feb-13 16:00S 30°13' E 031°09'815.8
2018-Feb-13 15:30S 30°19' E 031°04'816.2
2018-Feb-13 15:00S 30°25' E 030°58'815.8
2018-Feb-13 14:30S 30°31' E 030°52'  
Track history (hours):
 
Tides and Currents Weather Stations Pressure Air Temp Water Temp Dewpoint Dewpoint Depression Visibility Wind Speed Wind Dir Waves Ship Positions

Green Honduras

Last reported at 2018-Feb-14 00:36 UTC. Time now 2018-Feb-19 20:27 UTC.
Position S 28°44' E 032°30'.

Length 131 m; draft 6.2 m.

Type: Cargo ship. MMSI: 311289000.

Date/timePositionNaut miles runAvg speedWind from/ knotsBaromVisibWave heightAir tempDewpointWater temp
2018-Feb-14 00:36S 28°44' E 032°30'312.2
2018-Feb-14 00:23S 28°46' E 032°28'512.3
2018-Feb-14 00:00S 28°50' E 032°25'4211.7
2018-Feb-13 20:24S 29°22' E 031°54'513.8
2018-Feb-13 20:00S 29°26' E 031°50'714.7
2018-Feb-13 19:31S 29°32' E 031°45'714.3
2018-Feb-13 19:01S 29°38' E 031°41'713.2
2018-Feb-13 18:30S 29°44' E 031°38'714.2
2018-Feb-13 18:01S 29°49' E 031°32'815.1
2018-Feb-13 17:30S 29°54' E 031°25'815.6
2018-Feb-13 17:00S 30°00' E 031°20'815.1
2018-Feb-13 16:30S 30°06' E 031°14'815.3
2018-Feb-13 16:00S 30°13' E 031°09'815.8
2018-Feb-13 15:30S 30°19' E 031°04'816.2
2018-Feb-13 15:00S 30°25' E 030°58'815.8
2018-Feb-13 14:30S 30°31' E 030°52'  

Dump ship's entire track history